Time;durP1;ratioP1;P1;durP2;ratioP2;P2;SDS_P1;SDS_P2;PMS_P1;PMS_P2;Temp;Humidity;BMP_temperature;BMP_pressure;BME280_temperature;BME280_humidity;BME280_pressure;Samples;Min_cycle;Max_cycle;Signal;HPM_P1;HPM_P2
2023/07/06 00:01:00;;;;;;;6.72;3.92;;;;;;;;;;6024680;29;20247;-70
2023/07/06 00:04:06;;;;;;;7.72;3.83;;;;;;;;;;6024611;29;20445;-68
2023/07/06 00:07:12;;;;;;;6.28;3.60;;;;;;;;;;6016532;29;20240;-70
2023/07/06 00:10:17;;;;;;;7.75;3.67;;;;;;;;;;6001729;29;20432;-69
2023/07/06 00:13:22;;;;;;;6.28;3.22;;;;;;;;;;6002532;29;20528;-69
2023/07/06 00:16:27;;;;;;;6.07;3.38;;;;;;;;;;6001566;29;20311;-70
2023/07/06 00:19:34;;;;;;;7.85;3.30;;;;;;;;;;6001722;29;20251;-69
2023/07/06 00:22:38;;;;;;;3.47;3.17;;;;;;;;;;6001306;29;20533;-69
2023/07/06 00:25:43;;;;;;;5.53;3.20;;;;;;;;;;6001246;29;20440;-70
2023/07/06 00:28:49;;;;;;;3.67;3.17;;;;;;;;;;6001123;29;20260;-70
2023/07/06 00:32:04;;;;;;;5.28;3.13;;;;;;;;;;5985119;29;20290;-68
2023/07/06 00:35:11;;;;;;;5.22;3.38;;;;;;;;;;5985244;29;20275;-70
2023/07/06 00:38:19;;;;;;;7.50;3.50;;;;;;;;;;5984986;29;20348;-69
2023/07/06 00:41:23;;;;;;;2.85;2.60;;;;;;;;;;5984883;29;20464;-70
2023/07/06 00:44:47;;;;;;;7.47;3.10;;;;;;;;;;6001012;29;20251;-69
2023/07/06 00:47:55;;;;;;;4.47;2.88;;;;;;;;;;6000806;29;20247;-69
2023/07/06 00:51:04;;;;;;;2.70;2.50;;;;;;;;;;6014465;29;20287;-69
2023/07/06 00:54:12;;;;;;;3.55;2.88;;;;;;;;;;6000936;29;20271;-69
2023/07/06 00:57:19;;;;;;;3.08;2.45;;;;;;;;;;6000980;29;20243;-71
2023/07/06 01:00:23;;;;;;;2.63;2.38;;;;;;;;;;5985021;29;20350;-70
2023/07/06 01:03:28;;;;;;;4.13;2.60;;;;;;;;;;5984094;29;20291;-70
2023/07/06 01:06:36;;;;;;;6.25;3.30;;;;;;;;;;6002777;29;20243;-70
2023/07/06 01:09:41;;;;;;;3.10;2.80;;;;;;;;;;6006756;29;20275;-70
2023/07/06 01:12:46;;;;;;;4.57;2.70;;;;;;;;;;6021813;29;20306;-69
2023/07/06 01:15:54;;;;;;;3.97;2.72;;;;;;;;;;6006420;29;20559;-70
2023/07/06 01:19:07;;;;;;;5.45;2.60;;;;;;;;;;6005963;29;20575;-70
2023/07/06 01:22:26;;;;;;;6.20;3.38;;;;;;;;;;6022900;29;20247;-69
2023/07/06 01:25:45;;;;;;;3.05;2.70;;;;;;;;;;6022589;29;20532;-69
2023/07/06 01:29:25;;;;;;;2.83;2.30;;;;;;;;;;6021634;29;20278;-70
2023/07/06 01:32:33;;;;;;;3.33;2.22;;;;;;;;;;5994839;29;20528;-69
2023/07/06 01:35:44;;;;;;;3.83;2.65;;;;;;;;;;6005867;29;20290;-70
2023/07/06 01:38:48;;;;;;;2.60;2.40;;;;;;;;;;6020482;29;20283;-69
2023/07/06 01:42:25;;;;;;;3.20;2.25;;;;;;;;;;6022278;29;20384;-68
2023/07/06 01:45:32;;;;;;;3.25;2.15;;;;;;;;;;6020914;29;20334;-70
2023/07/06 01:48:39;;;;;;;2.75;2.55;;;;;;;;;;6022763;29;20274;-70
2023/07/06 01:51:52;;;;;;;3.00;1.90;;;;;;;;;;6021491;29;20548;-68
2023/07/06 01:55:02;;;;;;;3.60;2.35;;;;;;;;;;6005659;29;20302;-69
2023/07/06 01:58:11;;;;;;;3.95;2.50;;;;;;;;;;6022607;29;20423;-69
2023/07/06 02:01:19;;;;;;;3.63;2.40;;;;;;;;;;6006390;29;20281;-69
2023/07/06 02:04:26;;;;;;;6.05;2.53;;;;;;;;;;6022958;29;20247;-69
2023/07/06 02:07:33;;;;;;;2.50;2.30;;;;;;;;;;6012690;29;20252;-69
2023/07/06 02:10:37;;;;;;;3.05;2.67;;;;;;;;;;6013851;29;20275;-69
2023/07/06 02:13:42;;;;;;;2.38;2.20;;;;;;;;;;6012845;29;20594;-69
2023/07/06 02:16:50;;;;;;;2.67;2.28;;;;;;;;;;5988468;29;20296;-70
2023/07/06 02:19:55;;;;;;;5.63;2.75;;;;;;;;;;5977019;29;20248;-68
2023/07/06 02:23:00;;;;;;;6.55;2.90;;;;;;;;;;5976816;29;20252;-69
2023/07/06 02:26:05;;;;;;;4.63;3.30;;;;;;;;;;5976964;29;20252;-70
2023/07/06 02:29:10;;;;;;;4.13;2.85;;;;;;;;;;5960798;29;20280;-70
2023/07/06 02:32:15;;;;;;;3.58;2.42;;;;;;;;;;5981353;29;20255;-69
2023/07/06 02:35:21;;;;;;;5.68;2.90;;;;;;;;;;5981198;29;20274;-68
2023/07/06 02:38:29;;;;;;;3.17;2.70;;;;;;;;;;5964778;29;20283;-69
2023/07/06 02:41:35;;;;;;;4.03;2.35;;;;;;;;;;5981282;29;20237;-69
2023/07/06 02:44:39;;;;;;;4.32;2.50;;;;;;;;;;5981668;29;20261;-68
2023/07/06 02:47:44;;;;;;;2.90;2.70;;;;;;;;;;5981264;29;20244;-69
2023/07/06 02:50:51;;;;;;;6.00;2.50;;;;;;;;;;5980989;29;20341;-68
2023/07/06 02:53:57;;;;;;;2.47;2.35;;;;;;;;;;5994615;29;20291;-69
2023/07/06 02:57:01;;;;;;;2.60;2.50;;;;;;;;;;5994492;29;20283;-69
2023/07/06 03:00:11;;;;;;;4.28;2.85;;;;;;;;;;5964908;29;20280;-68
2023/07/06 03:03:16;;;;;;;3.53;2.42;;;;;;;;;;5981339;29;20248;-69
2023/07/06 03:06:21;;;;;;;3.88;2.63;;;;;;;;;;5981153;29;20249;-69
2023/07/06 03:09:27;;;;;;;7.90;2.80;;;;;;;;;;5981346;29;20257;-69
2023/07/06 03:12:36;;;;;;;5.63;2.90;;;;;;;;;;5980576;29;20244;-70
2023/07/06 03:15:41;;;;;;;4.53;2.55;;;;;;;;;;5980077;29;20307;-69
2023/07/06 03:18:46;;;;;;;6.18;2.70;;;;;;;;;;5978939;29;20351;-70
2023/07/06 03:21:52;;;;;;;3.92;2.80;;;;;;;;;;5964039;29;20288;-70
2023/07/06 03:24:58;;;;;;;3.42;2.92;;;;;;;;;;5980107;29;20252;-70
2023/07/06 03:28:02;;;;;;;4.20;3.20;;;;;;;;;;5980470;29;20252;-69
2023/07/06 03:31:07;;;;;;;4.63;2.90;;;;;;;;;;5978747;29;20279;-71
2023/07/06 03:34:12;;;;;;;4.97;2.97;;;;;;;;;;5978237;29;20444;-70
2023/07/06 03:37:18;;;;;;;5.63;3.10;;;;;;;;;;5980084;29;20265;-69
2023/07/06 03:40:24;;;;;;;5.50;3.25;;;;;;;;;;5993801;29;20280;-71
2023/07/06 03:43:29;;;;;;;5.28;2.88;;;;;;;;;;5979211;29;20249;-69
2023/07/06 03:46:34;;;;;;;3.47;3.15;;;;;;;;;;5993661;29;20283;-69
2023/07/06 03:49:39;;;;;;;6.30;3.15;;;;;;;;;;5979933;29;20248;-70
2023/07/06 03:52:46;;;;;;;9.30;3.65;;;;;;;;;;5979418;29;20241;-69
2023/07/06 03:55:54;;;;;;;5.40;3.63;;;;;;;;;;5979310;29;20459;-69
2023/07/06 03:59:00;;;;;;;7.63;4.15;;;;;;;;;;5979225;29;20252;-70
2023/07/06 04:02:06;;;;;;;6.10;3.95;;;;;;;;;;5979722;29;20240;-69
2023/07/06 04:05:10;;;;;;;5.72;4.05;;;;;;;;;;5979543;29;20256;-69
2023/07/06 04:08:18;;;;;;;6.13;4.32;;;;;;;;;;5978946;29;20248;-69
2023/07/06 04:11:23;;;;;;;7.07;4.15;;;;;;;;;;5978995;29;20245;-68
2023/07/06 04:14:29;;;;;;;8.15;4.32;;;;;;;;;;5979094;29;20271;-69
2023/07/06 04:17:36;;;;;;;4.20;3.80;;;;;;;;;;5978813;29;20299;-69
2023/07/06 04:20:41;;;;;;;7.55;3.65;;;;;;;;;;5980045;29;20248;-68
2023/07/06 04:23:48;;;;;;;4.55;3.80;;;;;;;;;;5979140;29;20339;-69
2023/07/06 04:26:53;;;;;;;5.40;3.50;;;;;;;;;;5978477;29;20244;-69
2023/07/06 04:29:58;;;;;;;4.65;3.97;;;;;;;;;;5978825;29;20252;-69
2023/07/06 04:33:03;;;;;;;3.22;3.03;;;;;;;;;;5962568;29;20352;-69
2023/07/06 04:36:09;;;;;;;4.43;2.72;;;;;;;;;;5978538;29;20299;-69
2023/07/06 04:39:15;;;;;;;4.45;3.33;;;;;;;;;;5978387;29;20252;-69
2023/07/06 04:42:20;;;;;;;8.50;3.08;;;;;;;;;;5978613;29;20252;-68
2023/07/06 04:45:26;;;;;;;3.38;2.83;;;;;;;;;;5992258;29;20365;-70
2023/07/06 04:48:32;;;;;;;4.72;3.00;;;;;;;;;;5991698;29;20284;-69
2023/07/06 04:51:38;;;;;;;5.80;2.85;;;;;;;;;;5991812;29;20458;-70
2023/07/06 04:54:44;;;;;;;12.23;2.78;;;;;;;;;;5978275;29;20276;-70
2023/07/06 04:57:51;;;;;;;7.30;2.97;;;;;;;;;;5977874;29;20248;-69
2023/07/06 05:01:04;;;;;;;6.90;3.03;;;;;;;;;;5977813;29;20257;-69
2023/07/06 05:04:10;;;;;;;7.75;3.00;;;;;;;;;;5961962;29;20364;-68
2023/07/06 05:07:15;;;;;;;3.10;2.67;;;;;;;;;;5977943;29;20252;-68
2023/07/06 05:10:21;;;;;;;4.15;2.60;;;;;;;;;;5978058;29;20248;-69
2023/07/06 05:13:26;;;;;;;2.95;2.40;;;;;;;;;;5978101;29;20261;-69
2023/07/06 05:16:31;;;;;;;5.50;3.08;;;;;;;;;;5992927;29;20462;-69
2023/07/06 05:19:36;;;;;;;3.15;2.22;;;;;;;;;;6023454;29;20247;-69
2023/07/06 05:22:40;;;;;;;4.55;2.88;;;;;;;;;;6022962;29;20251;-68
2023/07/06 05:25:47;;;;;;;8.48;2.80;;;;;;;;;;6023266;29;20311;-71
2023/07/06 05:28:53;;;;;;;10.88;3.92;;;;;;;;;;6023176;29;20243;-69
2023/07/06 05:31:57;;;;;;;5.57;3.40;;;;;;;;;;6023185;29;20247;-69
2023/07/06 05:35:02;;;;;;;8.65;3.33;;;;;;;;;;6022563;29;20275;-69
2023/07/06 05:38:07;;;;;;;5.38;3.10;;;;;;;;;;6022995;29;20266;-68
2023/07/06 05:41:13;;;;;;;5.35;2.60;;;;;;;;;;6022817;29;20243;-70
2023/07/06 05:44:18;;;;;;;5.03;3.00;;;;;;;;;;6022775;29;20251;-69
2023/07/06 05:47:23;;;;;;;5.20;3.22;;;;;;;;;;6022638;29;20255;-69
2023/07/06 05:50:27;;;;;;;8.18;3.10;;;;;;;;;;6022524;29;20251;-70
2023/07/06 05:53:32;;;;;;;4.10;2.85;;;;;;;;;;6022308;29;20250;-69
2023/07/06 05:56:38;;;;;;;4.22;2.75;;;;;;;;;;6022518;29;20274;-71
2023/07/06 05:59:42;;;;;;;2.88;2.65;;;;;;;;;;6022592;29;20247;-69
2023/07/06 06:02:47;;;;;;;3.00;2.80;;;;;;;;;;6022439;29;20277;-70
2023/07/06 06:05:53;;;;;;;5.63;2.92;;;;;;;;;;6023074;29;20282;-68
2023/07/06 06:08:59;;;;;;;7.40;3.58;;;;;;;;;;6005931;29;20386;-71
2023/07/06 06:12:05;;;;;;;3.75;3.45;;;;;;;;;;6004363;29;20244;-69
2023/07/06 06:15:10;;;;;;;7.80;3.70;;;;;;;;;;6004124;29;20255;-69
2023/07/06 06:18:33;;;;;;;3.88;3.67;;;;;;;;;;6003687;29;20291;-69
2023/07/06 06:21:38;;;;;;;5.07;4.20;;;;;;;;;;6003681;29;20260;-69
2023/07/06 06:24:44;;;;;;;9.82;4.97;;;;;;;;;;6004474;29;20259;-70
2023/07/06 06:27:51;;;;;;;5.55;5.03;;;;;;;;;;6003763;29;20247;-70
2023/07/06 06:30:56;;;;;;;11.25;5.32;;;;;;;;;;6003538;29;20454;-71
2023/07/06 06:34:00;;;;;;;6.65;5.10;;;;;;;;;;6003995;29;20252;-70
2023/07/06 06:37:06;;;;;;;8.45;5.43;;;;;;;;;;6003758;29;20300;-71
2023/07/06 06:40:11;;;;;;;6.25;5.75;;;;;;;;;;6003538;29;20492;-70
2023/07/06 06:43:18;;;;;;;9.57;6.65;;;;;;;;;;6003524;29;20244;-71
2023/07/06 06:46:23;;;;;;;11.63;6.63;;;;;;;;;;6003581;29;20535;-70
2023/07/06 06:49:29;;;;;;;7.80;5.78;;;;;;;;;;6003955;29;20248;-71
2023/07/06 06:52:33;;;;;;;10.27;6.35;;;;;;;;;;6003150;29;20247;-69
2023/07/06 06:55:38;;;;;;;11.85;6.95;;;;;;;;;;6002612;29;20284;-70
2023/07/06 06:58:44;;;;;;;10.27;6.90;;;;;;;;;;6003148;29;20247;-70
2023/07/06 07:01:50;;;;;;;8.50;6.72;;;;;;;;;;5986942;29;20275;-71
2023/07/06 07:04:59;;;;;;;10.63;6.60;;;;;;;;;;6004180;29;20244;-69
2023/07/06 07:08:03;;;;;;;9.63;6.88;;;;;;;;;;6016758;29;20251;-71
2023/07/06 07:11:08;;;;;;;8.98;6.72;;;;;;;;;;6025466;29;20251;-70
2023/07/06 07:14:28;;;;;;;10.43;6.22;;;;;;;;;;6025701;29;20248;-71
2023/07/06 07:17:33;;;;;;;9.23;6.60;;;;;;;;;;6023996;29;20291;-70
2023/07/06 07:20:38;;;;;;;11.93;6.90;;;;;;;;;;6025280;29;20247;-69
2023/07/06 07:23:44;;;;;;;11.38;6.60;;;;;;;;;;6025377;29;20247;-70
2023/07/06 07:26:49;;;;;;;8.60;6.22;;;;;;;;;;6025511;29;20291;-69
2023/07/06 07:29:58;;;;;;;10.63;6.38;;;;;;;;;;6025056;29;20248;-70
2023/07/06 07:33:03;;;;;;;9.88;5.60;;;;;;;;;;6025503;29;20243;-69
2023/07/06 07:36:09;;;;;;;11.93;5.43;;;;;;;;;;6024858;29;20248;-71
2023/07/06 07:39:15;;;;;;;5.88;5.00;;;;;;;;;;6025074;29;20247;-70
2023/07/06 07:42:20;;;;;;;8.85;5.40;;;;;;;;;;6025117;29;20429;-70
2023/07/06 07:45:26;;;;;;;8.20;5.38;;;;;;;;;;6024509;29;20387;-70
2023/07/06 07:48:33;;;;;;;15.50;6.38;;;;;;;;;;6024488;29;20257;-69
2023/07/06 07:51:39;;;;;;;11.45;5.85;;;;;;;;;;6024401;29;20255;-70
2023/07/06 07:54:43;;;;;;;9.10;5.55;;;;;;;;;;6024753;29;20243;-70
2023/07/06 07:57:48;;;;;;;7.82;5.05;;;;;;;;;;6024570;29;20282;-71
2023/07/06 08:00:55;;;;;;;5.63;4.22;;;;;;;;;;6024914;29;20246;-70
2023/07/06 08:04:02;;;;;;;11.60;4.88;;;;;;;;;;6024115;29;20386;-71
2023/07/06 08:07:07;;;;;;;8.98;4.85;;;;;;;;;;6017562;29;20244;-70
2023/07/06 08:10:12;;;;;;;5.75;4.28;;;;;;;;;;6001412;29;20256;-70
2023/07/06 08:13:17;;;;;;;4.70;4.20;;;;;;;;;;6015525;29;20302;-70
2023/07/06 08:16:24;;;;;;;4.10;3.70;;;;;;;;;;5993708;29;20304;-70
2023/07/06 08:19:29;;;;;;;3.85;3.55;;;;;;;;;;5979065;29;20252;-70
2023/07/06 08:22:54;;;;;;;4.53;3.88;;;;;;;;;;5962677;29;20288;-70
2023/07/06 08:25:59;;;;;;;7.43;3.35;;;;;;;;;;5978833;29;20252;-71
2023/07/06 08:29:04;;;;;;;5.78;3.40;;;;;;;;;;5978222;29;20280;-69
2023/07/06 08:32:15;;;;;;;7.88;2.90;;;;;;;;;;5979020;29;20385;-70
2023/07/06 08:35:21;;;;;;;5.78;3.33;;;;;;;;;;5978708;29;20248;-70
2023/07/06 08:38:25;;;;;;;4.57;2.80;;;;;;;;;;5978019;29;20292;-70
2023/07/06 08:41:34;;;;;;;2.75;2.33;;;;;;;;;;5978874;29;20248;-70
2023/07/06 08:44:39;;;;;;;3.30;2.28;;;;;;;;;;5962434;29;20284;-71
2023/07/06 08:47:45;;;;;;;7.78;2.03;;;;;;;;;;5977814;29;20529;-70
2023/07/06 08:50:53;;;;;;;6.63;2.53;;;;;;;;;;5977962;29;20272;-70
2023/07/06 08:54:01;;;;;;;2.97;1.88;;;;;;;;;;5978114;29;20245;-71
2023/07/06 08:57:12;;;;;;;5.05;2.30;;;;;;;;;;5977733;29;20280;-69
2023/07/06 09:00:21;;;;;;;7.28;2.10;;;;;;;;;;5977681;29;20244;-70
2023/07/06 09:03:28;;;;;;;6.57;2.65;;;;;;;;;;5991721;29;20283;-70
2023/07/06 09:06:33;;;;;;;2.00;1.73;;;;;;;;;;5977957;29;20244;-71
2023/07/06 09:09:41;;;;;;;1.98;1.88;;;;;;;;;;6000532;29;20251;-70
2023/07/06 09:12:46;;;;;;;3.70;1.83;;;;;;;;;;6000069;29;20446;-70
2023/07/06 09:15:56;;;;;;;4.97;1.85;;;;;;;;;;6004261;29;20598;-70
2023/07/06 09:19:08;;;;;;;1.88;1.60;;;;;;;;;;6022952;29;20488;-70
2023/07/06 09:22:14;;;;;;;1.50;1.50;;;;;;;;;;6023026;29;20259;-69
2023/07/06 09:25:21;;;;;;;1.30;1.10;;;;;;;;;;6022524;29;20247;-70
2023/07/06 09:28:29;;;;;;;1.38;1.30;;;;;;;;;;6022289;29;20262;-69
2023/07/06 09:31:34;;;;;;;1.50;1.40;;;;;;;;;;6022332;29;20254;-71
2023/07/06 09:34:45;;;;;;;4.00;1.50;;;;;;;;;;6022997;29;20254;-70
2023/07/06 09:37:52;;;;;;;3.67;1.73;;;;;;;;;;6022613;29;20283;-71
2023/07/06 09:40:56;;;;;;;1.92;1.38;;;;;;;;;;6021918;29;20527;-70
2023/07/06 09:44:03;;;;;;;2.35;1.38;;;;;;;;;;6022613;29;20437;-68
2023/07/06 09:47:12;;;;;;;3.60;2.00;;;;;;;;;;6022266;29;20319;-70
2023/07/06 09:50:22;;;;;;;2.75;1.50;;;;;;;;;;6022042;29;20408;-70
2023/07/06 09:53:34;;;;;;;1.77;1.67;;;;;;;;;;6021984;29;20488;-70
2023/07/06 09:56:39;;;;;;;2.88;1.98;;;;;;;;;;6022144;29;20243;-71
2023/07/06 09:59:46;;;;;;;5.20;1.98;;;;;;;;;;6022332;29;20266;-68
2023/07/06 10:02:57;;;;;;;4.10;2.17;;;;;;;;;;6020878;29;20283;-70
2023/07/06 10:06:09;;;;;;;10.07;2.13;;;;;;;;;;6021720;29;20345;-71
2023/07/06 10:09:18;;;;;;;3.85;1.92;;;;;;;;;;6022510;29;20247;-70
2023/07/06 10:12:28;;;;;;;3.53;2.22;;;;;;;;;;6005518;29;20286;-71
2023/07/06 10:15:40;;;;;;;5.55;2.00;;;;;;;;;;6022269;29;20436;-71
2023/07/06 10:18:50;;;;;;;4.25;1.75;;;;;;;;;;6022545;29;20295;-69
2023/07/06 10:22:05;;;;;;;3.72;2.78;;;;;;;;;;6022160;29;20247;-70
2023/07/06 10:25:20;;;;;;;4.22;2.10;;;;;;;;;;6022029;29;20248;-71
2023/07/06 10:28:28;;;;;;;4.68;2.13;;;;;;;;;;6006019;29;20460;-69
2023/07/06 10:31:36;;;;;;;5.10;1.90;;;;;;;;;;6022343;29;20291;-71
2023/07/06 10:34:43;;;;;;;2.83;1.95;;;;;;;;;;6022984;29;20247;-71
2023/07/06 10:38:11;;;;;;;2.55;1.90;;;;;;;;;;6024878;29;20290;-70
2023/07/06 10:41:28;;;;;;;4.25;1.90;;;;;;;;;;6022206;29;20512;-69
2023/07/06 10:44:46;;;;;;;2.22;1.73;;;;;;;;;;6022158;29;20243;-70
2023/07/06 10:47:52;;;;;;;2.35;1.80;;;;;;;;;;6022187;29;20263;-70
2023/07/06 10:51:19;;;;;;;1.83;1.73;;;;;;;;;;6022966;29;20396;-70
2023/07/06 10:54:28;;;;;;;1.90;1.70;;;;;;;;;;6002915;29;20275;-69
2023/07/06 10:57:36;;;;;;;1.92;1.83;;;;;;;;;;6025931;29;20247;-69
2023/07/06 11:00:44;;;;;;;3.22;1.70;;;;;;;;;;6026085;29;20263;-70
2023/07/06 11:03:49;;;;;;;4.00;1.88;;;;;;;;;;6026104;29;20252;-70
2023/07/06 11:06:55;;;;;;;4.00;2.00;;;;;;;;;;6021057;29;20239;-70
2023/07/06 11:10:24;;;;;;;2.92;1.70;;;;;;;;;;6016666;29;20287;-71
2023/07/06 11:13:29;;;;;;;5.95;2.03;;;;;;;;;;6003145;29;20239;-70
2023/07/06 11:16:50;;;;;;;5.63;1.92;;;;;;;;;;6002796;29;20291;-71
2023/07/06 11:19:59;;;;;;;2.80;1.60;;;;;;;;;;6002864;29;20272;-71
2023/07/06 11:23:05;;;;;;;5.97;1.63;;;;;;;;;;6002946;29;20516;-69
2023/07/06 11:26:26;;;;;;;2.28;1.80;;;;;;;;;;6002975;29;20247;-69
2023/07/06 11:29:34;;;;;;;2.78;1.35;;;;;;;;;;6002328;29;20257;-70
2023/07/06 11:32:44;;;;;;;5.95;2.03;;;;;;;;;;6002803;29;20240;-71
2023/07/06 11:35:55;;;;;;;1.63;1.48;;;;;;;;;;6002339;29;20263;-70
2023/07/06 11:39:09;;;;;;;13.43;2.10;;;;;;;;;;6002776;29;20279;-71
2023/07/06 11:42:27;;;;;;;2.83;1.77;;;;;;;;;;6002461;29;20256;-70
2023/07/06 11:45:39;;;;;;;5.25;1.70;;;;;;;;;;6002863;29;20244;-70
2023/07/06 11:48:50;;;;;;;5.15;1.80;;;;;;;;;;6002016;29;20261;-70
2023/07/06 11:51:58;;;;;;;2.75;1.42;;;;;;;;;;5986387;29;20280;-70
2023/07/06 11:55:15;;;;;;;5.15;1.80;;;;;;;;;;6001982;29;20252;-70
2023/07/06 11:58:31;;;;;;;2.88;1.90;;;;;;;;;;6001635;29;20244;-70
2023/07/06 12:01:45;;;;;;;3.42;1.80;;;;;;;;;;6002629;29;20547;-69
2023/07/06 12:04:51;;;;;;;2.78;1.83;;;;;;;;;;6001500;29;20248;-69
2023/07/06 12:08:01;;;;;;;1.85;1.65;;;;;;;;;;6012896;29;20280;-69
2023/07/06 12:11:08;;;;;;;3.00;1.85;;;;;;;;;;6024196;29;20247;-70
2023/07/06 12:14:20;;;;;;;5.55;1.75;;;;;;;;;;6024587;29;20270;-70
2023/07/06 12:17:29;;;;;;;2.25;1.77;;;;;;;;;;6024075;29;20298;-69
2023/07/06 12:20:34;;;;;;;2.08;1.55;;;;;;;;;;6024409;29;20270;-70
2023/07/06 12:23:41;;;;;;;2.90;1.98;;;;;;;;;;6024391;29;20258;-70
2023/07/06 12:26:47;;;;;;;4.10;1.95;;;;;;;;;;6023959;29;20256;-70
2023/07/06 12:30:06;;;;;;;5.15;2.03;;;;;;;;;;6023894;29;20450;-70
2023/07/06 12:33:16;;;;;;;4.03;1.65;;;;;;;;;;6024334;29;20247;-70
2023/07/06 12:36:21;;;;;;;4.28;1.80;;;;;;;;;;6024052;29;20235;-70
2023/07/06 12:39:26;;;;;;;2.03;1.83;;;;;;;;;;6007098;29;20456;-70
2023/07/06 12:42:31;;;;;;;2.63;1.83;;;;;;;;;;6023750;29;20275;-71
2023/07/06 12:45:37;;;;;;;2.08;1.90;;;;;;;;;;6023960;29;20258;-69
2023/07/06 12:48:51;;;;;;;1.73;1.63;;;;;;;;;;6023562;29;20263;-70
2023/07/06 12:51:58;;;;;;;4.57;1.80;;;;;;;;;;6023824;29;20247;-71
2023/07/06 12:55:03;;;;;;;5.45;1.95;;;;;;;;;;6021416;29;20444;-72
2023/07/06 12:58:18;;;;;;;4.10;1.85;;;;;;;;;;6023047;29;20279;-70
2023/07/06 13:01:28;;;;;;;2.65;2.00;;;;;;;;;;6022726;29;20452;-70
2023/07/06 13:04:43;;;;;;;1.90;1.80;;;;;;;;;;6022604;29;20251;-70
2023/07/06 13:07:51;;;;;;;2.90;2.00;;;;;;;;;;6010872;29;20292;-70
2023/07/06 13:11:02;;;;;;;1.92;1.73;;;;;;;;;;6002005;29;20260;-71
2023/07/06 13:14:08;;;;;;;3.95;1.73;;;;;;;;;;5999182;29;20248;-70
2023/07/06 13:17:18;;;;;;;3.00;1.77;;;;;;;;;;6000061;29;20383;-68
2023/07/06 13:20:23;;;;;;;2.10;2.00;;;;;;;;;;6000102;29;20343;-70
2023/07/06 13:23:28;;;;;;;7.35;1.92;;;;;;;;;;6000625;29;20244;-69
2023/07/06 13:26:32;;;;;;;3.80;2.03;;;;;;;;;;5984127;29;20275;-69
2023/07/06 13:29:37;;;;;;;2.20;2.00;;;;;;;;;;6000474;29;20267;-70
2023/07/06 13:32:43;;;;;;;4.90;1.77;;;;;;;;;;6000607;29;20271;-71
2023/07/06 13:35:48;;;;;;;2.00;1.70;;;;;;;;;;5999918;29;20260;-70
2023/07/06 13:38:53;;;;;;;3.55;1.75;;;;;;;;;;5999960;29;20268;-71
2023/07/06 13:41:58;;;;;;;1.77;1.70;;;;;;;;;;5999699;29;20275;-69
2023/07/06 13:45:02;;;;;;;10.48;2.20;;;;;;;;;;5999745;29;20363;-72
2023/07/06 13:48:11;;;;;;;9.73;1.92;;;;;;;;;;5983796;29;20279;-71
2023/07/06 13:51:16;;;;;;;2.65;1.75;;;;;;;;;;6000059;29;20252;-70
2023/07/06 13:54:23;;;;;;;1.92;1.83;;;;;;;;;;6000445;29;20388;-70
2023/07/06 13:57:29;;;;;;;3.38;2.00;;;;;;;;;;5999417;29;20316;-69
2023/07/06 14:00:33;;;;;;;2.72;1.67;;;;;;;;;;5999637;29;20291;-70
2023/07/06 14:03:42;;;;;;;3.40;2.10;;;;;;;;;;5999849;29;20247;-69
2023/07/06 14:06:47;;;;;;;2.92;1.70;;;;;;;;;;6003139;29;20243;-71
2023/07/06 14:09:52;;;;;;;2.35;1.70;;;;;;;;;;6022273;29;20250;-69
2023/07/06 14:12:56;;;;;;;6.30;1.75;;;;;;;;;;6022216;29;20251;-70
2023/07/06 14:16:01;;;;;;;2.15;1.20;;;;;;;;;;6020602;29;20326;-69
2023/07/06 14:19:07;;;;;;;1.45;1.25;;;;;;;;;;6022329;29;20287;-70
2023/07/06 14:22:12;;;;;;;3.03;1.30;;;;;;;;;;6020459;29;20487;-70
2023/07/06 14:25:19;;;;;;;1.38;1.27;;;;;;;;;;6021953;29;20259;-71
2023/07/06 14:28:27;;;;;;;2.15;1.48;;;;;;;;;;6026216;29;20243;-70
2023/07/06 14:31:33;;;;;;;4.25;1.50;;;;;;;;;;6026831;29;20246;-69
2023/07/06 14:34:39;;;;;;;2.28;1.40;;;;;;;;;;6026540;29;20243;-70
2023/07/06 14:37:45;;;;;;;1.38;1.27;;;;;;;;;;6026301;29;20420;-70
2023/07/06 14:40:49;;;;;;;2.25;1.60;;;;;;;;;;6025935;29;20275;-69
2023/07/06 14:43:54;;;;;;;2.45;1.55;;;;;;;;;;6026162;29;20432;-70
2023/07/06 14:46:58;;;;;;;2.28;1.73;;;;;;;;;;6026126;29;20244;-70
2023/07/06 14:50:08;;;;;;;2.58;1.90;;;;;;;;;;6025995;29;20258;-71
2023/07/06 14:53:13;;;;;;;1.20;1.10;;;;;;;;;;6025938;29;20239;-70
2023/07/06 14:56:20;;;;;;;2.88;1.38;;;;;;;;;;6025683;29;20251;-70
2023/07/06 14:59:25;;;;;;;4.28;1.52;;;;;;;;;;6025619;29;20243;-70
2023/07/06 15:02:30;;;;;;;1.40;1.30;;;;;;;;;;6025816;29;20349;-70
2023/07/06 15:05:36;;;;;;;3.63;1.40;;;;;;;;;;6025894;29;20246;-70
2023/07/06 15:08:41;;;;;;;2.63;1.40;;;;;;;;;;6007219;29;20259;-70
2023/07/06 15:11:46;;;;;;;1.63;1.50;;;;;;;;;;6002759;29;20264;-70
2023/07/06 15:14:51;;;;;;;3.22;1.60;;;;;;;;;;6002944;29;20431;-71
2023/07/06 15:17:56;;;;;;;2.70;1.33;;;;;;;;;;5983588;29;20288;-70
2023/07/06 15:21:10;;;;;;;5.25;1.70;;;;;;;;;;5980147;29;20268;-69
2023/07/06 15:24:14;;;;;;;1.50;1.40;;;;;;;;;;5980081;29;20244;-70
2023/07/06 15:27:19;;;;;;;1.67;1.58;;;;;;;;;;5980307;29;20331;-71
2023/07/06 15:30:24;;;;;;;1.50;1.40;;;;;;;;;;5979774;29;20363;-71
2023/07/06 15:33:28;;;;;;;1.30;1.10;;;;;;;;;;5979787;29;20252;-70
2023/07/06 15:36:34;;;;;;;1.75;1.33;;;;;;;;;;5979536;29;20261;-69
2023/07/06 15:39:39;;;;;;;1.50;1.40;;;;;;;;;;5979426;29;20312;-71
2023/07/06 15:42:46;;;;;;;1.88;1.15;;;;;;;;;;5979531;29;20272;-70
2023/07/06 15:45:51;;;;;;;1.40;1.30;;;;;;;;;;5980659;29;20261;-71
2023/07/06 15:48:55;;;;;;;2.15;1.58;;;;;;;;;;5979166;29;20244;-70
2023/07/06 15:52:01;;;;;;;3.03;1.52;;;;;;;;;;5979286;29;20249;-69
2023/07/06 15:55:07;;;;;;;1.65;1.55;;;;;;;;;;5979238;29;20393;-70
2023/07/06 15:58:12;;;;;;;2.90;1.45;;;;;;;;;;5992473;29;20272;-70
2023/07/06 16:01:16;;;;;;;4.18;1.75;;;;;;;;;;5979195;29;20272;-69
2023/07/06 16:04:21;;;;;;;1.27;1.00;;;;;;;;;;5979718;29;20325;-70
2023/07/06 16:07:27;;;;;;;1.02;1.02;;;;;;;;;;5979257;29;20248;-71
2023/07/06 16:10:32;;;;;;;0.93;0.90;;;;;;;;;;5979488;29;20286;-69
2023/07/06 16:13:36;;;;;;;1.20;1.00;;;;;;;;;;5979079;29;20256;-70
2023/07/06 16:16:41;;;;;;;1.00;1.00;;;;;;;;;;5998025;29;20307;-71
2023/07/06 16:19:46;;;;;;;1.30;1.20;;;;;;;;;;6024917;29;20246;-70
2023/07/06 16:22:52;;;;;;;1.08;1.08;;;;;;;;;;6024454;29;20279;-70
2023/07/06 16:26:01;;;;;;;1.10;1.10;;;;;;;;;;6024504;29;20251;-70
2023/07/06 16:29:07;;;;;;;0.88;0.88;;;;;;;;;;6024361;29;20433;-70
2023/07/06 16:32:12;;;;;;;8.98;1.45;;;;;;;;;;6024189;29;20251;-70
2023/07/06 16:35:17;;;;;;;1.10;1.10;;;;;;;;;;6023500;29;20247;-70
2023/07/06 16:38:23;;;;;;;0.90;0.90;;;;;;;;;;6024176;29;20259;-71
2023/07/06 16:41:29;;;;;;;2.50;1.10;;;;;;;;;;6023559;29;20254;-70
2023/07/06 16:44:33;;;;;;;2.67;0.93;;;;;;;;;;6024330;29;20501;-70
2023/07/06 16:47:38;;;;;;;1.13;1.10;;;;;;;;;;6023334;29;20485;-70
2023/07/06 16:50:43;;;;;;;1.20;1.10;;;;;;;;;;6023318;29;20318;-69
2023/07/06 16:53:52;;;;;;;1.67;1.20;;;;;;;;;;6023632;29;20427;-69
2023/07/06 16:56:57;;;;;;;1.55;1.15;;;;;;;;;;6024961;29;20239;-69
2023/07/06 17:00:02;;;;;;;1.23;1.23;;;;;;;;;;6023548;29;20263;-71
2023/07/06 17:03:07;;;;;;;1.40;1.30;;;;;;;;;;6023159;29;20475;-70
2023/07/06 17:06:12;;;;;;;3.17;1.50;;;;;;;;;;6023275;29;20267;-69
2023/07/06 17:09:17;;;;;;;4.55;1.10;;;;;;;;;;6023194;29;20243;-70
2023/07/06 17:12:24;;;;;;;1.67;1.05;;;;;;;;;;6022943;29;20400;-69
2023/07/06 17:15:29;;;;;;;1.10;1.10;;;;;;;;;;6023238;29;20247;-70
2023/07/06 17:18:34;;;;;;;1.10;1.10;;;;;;;;;;6023254;29;20243;-69
2023/07/06 17:21:40;;;;;;;3.45;1.33;;;;;;;;;;6023024;29;20256;-69
2023/07/06 17:24:46;;;;;;;3.33;1.20;;;;;;;;;;6022852;29;20247;-70
2023/07/06 17:27:50;;;;;;;1.95;1.10;;;;;;;;;;6022477;29;20430;-71
2023/07/06 17:30:55;;;;;;;3.00;1.45;;;;;;;;;;6022791;29;20255;-70
2023/07/06 17:33:59;;;;;;;2.15;1.00;;;;;;;;;;6022513;29;20523;-70
2023/07/06 17:37:05;;;;;;;3.38;1.70;;;;;;;;;;6022831;29;20267;-69
2023/07/06 17:40:12;;;;;;;1.38;1.38;;;;;;;;;;6022364;29;20247;-70
2023/07/06 17:43:17;;;;;;;2.83;1.80;;;;;;;;;;6022885;29;20266;-71
2023/07/06 17:46:21;;;;;;;3.25;1.90;;;;;;;;;;6022678;29;20239;-69
2023/07/06 17:49:26;;;;;;;1.63;1.52;;;;;;;;;;6023053;29;20251;-70
2023/07/06 17:52:30;;;;;;;2.13;1.60;;;;;;;;;;6022575;29;20259;-71
2023/07/06 17:55:36;;;;;;;4.90;2.08;;;;;;;;;;6022520;29;20251;-69
2023/07/06 17:58:41;;;;;;;2.30;2.20;;;;;;;;;;6022870;29;20247;-70
2023/07/06 18:01:45;;;;;;;2.03;1.92;;;;;;;;;;6027493;29;20443;-70
2023/07/06 18:04:50;;;;;;;6.53;1.48;;;;;;;;;;6030270;29;20542;-71
2023/07/06 18:07:54;;;;;;;1.92;1.70;;;;;;;;;;6017009;29;20247;-71
2023/07/06 18:11:01;;;;;;;4.18;1.65;;;;;;;;;;6021890;29;20275;-70
2023/07/06 18:14:05;;;;;;;1.92;1.60;;;;;;;;;;6007373;29;20260;-70
2023/07/06 18:17:11;;;;;;;1.98;1.92;;;;;;;;;;6006980;29;20413;-70
2023/07/06 18:20:17;;;;;;;3.40;1.48;;;;;;;;;;6007328;29;20251;-71
2023/07/06 18:23:21;;;;;;;5.18;1.67;;;;;;;;;;6007785;29;20519;-70
2023/07/06 18:26:28;;;;;;;3.72;1.80;;;;;;;;;;6006865;29;20417;-71
2023/07/06 18:29:33;;;;;;;1.95;1.40;;;;;;;;;;6006955;29;20247;-69
2023/07/06 18:32:38;;;;;;;2.10;1.30;;;;;;;;;;6007210;29;20247;-70
2023/07/06 18:35:45;;;;;;;1.25;1.15;;;;;;;;;;6007069;29;20300;-70
2023/07/06 18:38:50;;;;;;;2.50;1.30;;;;;;;;;;6006503;29;20259;-70
2023/07/06 18:41:57;;;;;;;1.33;1.23;;;;;;;;;;6007056;29;20243;-70